logo
Search for airport 
image banner adimage banner adimage banner ad
image banner ad

SD7Z - Fazenda Tartus

Located in Porto Franco, Brazil

ICAO - SD7Z, IATA -

Data provided by Airmate  

General information

Coordinates: S6°15'10" W47°8'57"
Elevation is 744 feet MSL.
 
View others Airports in Tocatins

Operational data

Special qualification required
Current time UTC:
Current local time:
Weather at : - ( 0 km )
METAR: KRHV 140347Z 17010KT 10SM SCT030 09/03 A2994
View NOTAMs / SUP AIP / TFR affecting this airport [VIEW]
Communications frequencies: [VIEW]

Runways:

RWY identifierQFULength (ft)Width (ft)SurfaceLDA (ft)
08328159OTHER:PIÇ
26328159OTHER:PIÇ

Airport contact information

Address: Porto Franco Brazil

Satellite view of SD7Z